createdAt,value
2018-09-25T00:02:23.515Z,2.20
2018-09-25T00:04:57.138Z,1.80
2018-09-25T00:07:30.669Z,2.20
2018-09-25T00:10:04.196Z,2.10
2018-09-25T00:12:38.119Z,2.00
2018-09-25T00:15:11.952Z,2.07
2018-09-25T00:17:45.558Z,2.20
2018-09-25T00:20:19.024Z,2.77
2018-09-25T00:22:52.677Z,2.13
2018-09-25T00:25:26.422Z,1.83
2018-09-25T00:27:59.940Z,2.20
2018-09-25T00:30:33.667Z,1.90
2018-09-25T00:33:07.178Z,1.67
2018-09-25T00:35:40.955Z,1.90
2018-09-25T00:38:14.509Z,2.00
2018-09-25T00:40:48.220Z,2.23
2018-09-25T00:43:21.998Z,1.63
2018-09-25T00:45:55.714Z,2.13
2018-09-25T00:48:29.283Z,2.00
2018-09-25T00:51:02.924Z,1.50
2018-09-25T00:53:36.438Z,1.70
2018-09-25T00:56:10.052Z,1.90
2018-09-25T00:58:43.549Z,2.10
2018-09-25T01:01:17.289Z,1.93
2018-09-25T01:03:50.978Z,1.70
2018-09-25T01:06:24.732Z,1.70
2018-09-25T01:08:58.532Z,1.60
2018-09-25T01:11:32.112Z,2.00
2018-09-25T01:14:05.738Z,1.47
2018-09-25T01:16:39.461Z,1.63
2018-09-25T01:19:13.025Z,1.67
2018-09-25T01:21:46.749Z,1.90
2018-09-25T01:24:20.334Z,1.50
2018-09-25T01:26:53.917Z,1.90
2018-09-25T01:29:27.607Z,2.00
2018-09-25T01:32:01.182Z,2.43
2018-09-25T01:34:34.703Z,1.73
2018-09-25T01:37:08.637Z,2.17
2018-09-25T01:39:42.301Z,1.60
2018-09-25T01:45:03.019Z,1.87
2018-09-25T01:47:36.520Z,1.67
2018-09-25T01:50:10.389Z,1.70
2018-09-25T01:52:44.037Z,1.97
2018-09-25T01:55:17.761Z,1.83
2018-09-25T01:57:51.517Z,2.00
2018-09-25T02:00:25.435Z,1.93
2018-09-25T02:02:58.977Z,2.03
2018-09-25T02:05:32.735Z,1.53
2018-09-25T02:08:06.421Z,2.50
2018-09-25T02:10:40.125Z,2.43
2018-09-25T02:13:13.776Z,2.00
2018-09-25T02:15:47.406Z,2.40
2018-09-25T02:18:20.979Z,1.90
2018-09-25T02:20:54.651Z,1.53
2018-09-25T02:23:28.496Z,1.90
2018-09-25T02:26:02.030Z,1.80
2018-09-25T02:28:35.747Z,2.27
2018-09-25T02:31:09.695Z,2.23
2018-09-25T02:33:43.432Z,1.90
2018-09-25T02:36:17.109Z,2.17
2018-09-25T02:38:50.753Z,1.73
2018-09-25T02:41:24.365Z,2.13
2018-09-25T02:43:57.973Z,1.93
2018-09-25T02:46:31.597Z,1.77
2018-09-25T02:49:05.187Z,1.83
2018-09-25T02:51:38.844Z,1.93
2018-09-25T02:54:12.553Z,1.80
2018-09-25T02:56:46.299Z,1.83
2018-09-25T02:59:20.006Z,1.63
2018-09-25T03:01:53.647Z,1.93
2018-09-25T03:04:27.399Z,1.87
2018-09-25T03:07:01.211Z,1.60
2018-09-25T03:09:34.938Z,1.57
2018-09-25T03:12:08.602Z,1.90
2018-09-25T03:14:42.419Z,1.67
2018-09-25T03:17:16.189Z,1.53
2018-09-25T03:19:49.953Z,1.90
2018-09-25T03:22:23.553Z,2.50
2018-09-25T03:24:57.460Z,2.40
2018-09-25T03:27:31.106Z,2.50
2018-09-25T03:30:04.693Z,2.17
2018-09-25T03:32:38.345Z,2.50
2018-09-25T03:35:12.009Z,3.33
2018-09-25T03:37:45.597Z,2.63
2018-09-25T03:40:19.186Z,2.30
2018-09-25T03:42:52.919Z,3.00
2018-09-25T03:45:26.527Z,2.83
2018-09-25T03:48:00.281Z,2.90
2018-09-25T03:50:34.063Z,2.17
2018-09-25T03:53:07.803Z,2.00
2018-09-25T03:55:41.554Z,2.10
2018-09-25T03:58:15.273Z,2.33
2018-09-25T04:00:48.845Z,2.30
2018-09-25T04:03:22.383Z,1.97
2018-09-25T04:05:56.099Z,2.17
2018-09-25T04:08:29.656Z,1.60
2018-09-25T04:11:03.376Z,2.07
2018-09-25T04:13:37.087Z,2.73
2018-09-25T04:16:10.720Z,1.60
2018-09-25T04:18:44.689Z,2.37
2018-09-25T04:21:18.522Z,1.90
2018-09-25T04:23:52.139Z,2.17
2018-09-25T04:26:25.885Z,2.07
2018-09-25T04:28:59.493Z,2.20
2018-09-25T04:31:33.109Z,3.43
2018-09-25T04:34:06.825Z,2.50
2018-09-25T04:36:40.450Z,2.50
2018-09-25T04:39:14.801Z,2.70
2018-09-25T04:41:54.525Z,2.33
2018-09-25T04:44:28.129Z,2.17
2018-09-25T04:47:01.638Z,2.07
2018-09-25T04:49:35.309Z,2.33
2018-09-25T04:52:08.891Z,2.10
2018-09-25T04:54:42.515Z,1.70
2018-09-25T04:57:16.146Z,2.30
2018-09-25T04:59:49.881Z,1.80
2018-09-25T05:02:23.551Z,2.33
2018-09-25T05:04:57.014Z,2.07
2018-09-25T05:07:30.767Z,2.47
2018-09-25T05:10:04.395Z,2.40
2018-09-25T05:12:38.229Z,2.40
2018-09-25T05:15:11.984Z,2.10
2018-09-25T05:17:45.697Z,2.00
2018-09-25T05:20:19.246Z,2.37
2018-09-25T05:22:53.334Z,2.00
2018-09-25T05:25:27.269Z,1.93
2018-09-25T05:28:01.782Z,2.33
2018-09-25T05:30:35.295Z,2.50
2018-09-25T05:33:10.036Z,1.97
2018-09-25T05:35:43.635Z,2.43
2018-09-25T05:38:17.450Z,2.00
2018-09-25T05:40:51.299Z,2.33
2018-09-25T05:43:25.045Z,2.57
2018-09-25T05:45:58.811Z,2.60
2018-09-25T05:48:32.562Z,2.10
2018-09-25T05:51:06.237Z,2.70
2018-09-25T05:53:40.330Z,2.47
2018-09-25T05:56:14.059Z,2.60
2018-09-25T05:58:47.613Z,2.33
2018-09-25T06:01:21.313Z,3.13
2018-09-25T06:03:55.032Z,2.23
2018-09-25T06:06:28.565Z,3.10
2018-09-25T06:09:02.263Z,2.97
2018-09-25T06:11:35.891Z,3.03
2018-09-25T06:14:09.761Z,2.00
2018-09-25T06:16:43.352Z,2.57
2018-09-25T06:19:17.094Z,2.40
2018-09-25T06:21:50.701Z,2.90
2018-09-25T06:24:24.470Z,2.00
2018-09-25T06:26:58.072Z,2.90
2018-09-25T06:29:31.869Z,3.00
2018-09-25T06:32:05.436Z,2.20
2018-09-25T06:34:39.126Z,2.20
2018-09-25T06:37:12.852Z,2.40
2018-09-25T06:39:46.334Z,2.70
2018-09-25T06:42:19.908Z,2.83
2018-09-25T06:44:53.518Z,2.70
2018-09-25T06:47:27.345Z,2.23
2018-09-25T06:50:01.143Z,2.43
2018-09-25T06:52:34.835Z,2.13
2018-09-25T06:55:08.560Z,2.43
2018-09-25T06:57:42.154Z,2.03
2018-09-25T07:00:15.753Z,3.17
2018-09-25T07:02:49.341Z,2.70
2018-09-25T07:05:23.064Z,2.27
2018-09-25T07:07:56.485Z,3.00
2018-09-25T07:10:30.141Z,1.90
2018-09-25T07:13:03.773Z,2.30
2018-09-25T07:15:37.395Z,2.30
2018-09-25T07:18:11.122Z,2.43
2018-09-25T07:20:44.908Z,2.50
2018-09-25T07:23:18.595Z,1.97
2018-09-25T07:25:52.084Z,2.00
2018-09-25T07:28:25.896Z,1.90
2018-09-25T07:31:01.048Z,2.10
2018-09-25T07:33:34.654Z,1.77
2018-09-25T07:36:08.135Z,2.57
2018-09-25T07:38:41.773Z,2.37
2018-09-25T07:41:15.626Z,1.93
2018-09-25T07:43:49.154Z,1.80
2018-09-25T07:46:22.940Z,1.97
2018-09-25T07:48:56.510Z,1.83
2018-09-25T07:51:30.106Z,1.90
2018-09-25T07:54:03.717Z,2.47
2018-09-25T07:56:37.327Z,2.20
2018-09-25T07:59:10.917Z,2.30
2018-09-25T08:01:44.638Z,2.50
2018-09-25T08:04:18.501Z,2.10
2018-09-25T08:06:52.144Z,2.93
2018-09-25T08:09:25.673Z,2.23
2018-09-25T08:11:59.328Z,2.00
2018-09-25T08:14:35.226Z,2.53
2018-09-25T08:17:08.842Z,2.93
2018-09-25T08:19:42.487Z,2.50
2018-09-25T08:22:15.983Z,2.30
2018-09-25T08:24:49.606Z,2.30
2018-09-25T08:27:23.238Z,2.30
2018-09-25T08:29:56.814Z,2.60
2018-09-25T08:32:30.362Z,2.60
2018-09-25T08:35:04.078Z,2.63
2018-09-25T08:37:37.812Z,2.20
2018-09-25T08:40:11.431Z,2.00
2018-09-25T08:42:45.153Z,1.80
2018-09-25T08:45:18.832Z,2.13
2018-09-25T08:47:52.422Z,2.13
2018-09-25T08:50:26.090Z,2.20
2018-09-25T08:52:59.779Z,2.23
2018-09-25T08:55:33.413Z,2.03
2018-09-25T08:58:07.092Z,1.77
2018-09-25T09:00:40.854Z,1.40
2018-09-25T09:03:14.667Z,2.30
2018-09-25T09:05:48.455Z,2.00
2018-09-25T09:08:22.167Z,2.00
2018-09-25T09:10:55.786Z,2.30
2018-09-25T09:13:29.332Z,2.30
2018-09-25T09:16:02.956Z,2.00
2018-09-25T09:18:36.800Z,2.43
2018-09-25T09:21:10.395Z,1.27
2018-09-25T09:23:44.139Z,1.67
2018-09-25T09:26:17.905Z,1.67
2018-09-25T09:28:51.506Z,1.73
2018-09-25T09:31:25.236Z,2.13
2018-09-25T09:33:59.041Z,2.20
2018-09-25T09:36:33.012Z,2.07
2018-09-25T09:39:06.683Z,2.03
2018-09-25T09:41:40.494Z,1.90
2018-09-25T09:44:14.520Z,1.87
2018-09-25T09:46:48.263Z,1.63
2018-09-25T09:49:22.132Z,3.10
2018-09-25T09:51:55.898Z,1.43
2018-09-25T09:54:29.816Z,2.40
2018-09-25T09:57:03.560Z,1.50
2018-09-25T09:59:37.406Z,2.10
2018-09-25T10:02:11.340Z,2.03
2018-09-25T10:04:45.015Z,1.83
2018-09-25T10:07:18.807Z,1.67
2018-09-25T10:09:52.508Z,1.70
2018-09-25T10:12:26.181Z,1.80
2018-09-25T10:14:59.782Z,3.03
2018-09-25T10:17:33.771Z,2.40
2018-09-25T10:20:07.456Z,1.90
2018-09-25T10:22:41.382Z,1.73
2018-09-25T10:25:15.191Z,2.53
2018-09-25T10:27:49.097Z,1.87
2018-09-25T10:30:22.834Z,2.73
2018-09-25T10:32:56.688Z,2.07
2018-09-25T10:35:30.363Z,3.07
2018-09-25T10:38:03.995Z,3.20
2018-09-25T10:40:37.577Z,2.10
2018-09-25T10:43:11.274Z,3.70
2018-09-25T10:45:45.040Z,4.13
2018-09-25T10:48:18.867Z,2.23
2018-09-25T10:50:52.530Z,2.97
2018-09-25T10:53:26.187Z,3.10
2018-09-25T10:56:00.158Z,2.00
2018-09-25T10:58:33.776Z,1.97
2018-09-25T11:01:07.442Z,2.40
2018-09-25T11:03:40.923Z,2.10
2018-09-25T11:06:14.680Z,3.17
2018-09-25T11:08:48.409Z,3.00
2018-09-25T11:11:22.201Z,2.37
2018-09-25T11:13:55.842Z,1.70
2018-09-25T11:16:29.730Z,2.50
2018-09-25T11:19:03.522Z,1.73
2018-09-25T11:21:37.403Z,1.57
2018-09-25T11:24:11.052Z,2.03
2018-09-25T11:26:45.188Z,2.97
2018-09-25T11:29:18.761Z,2.50
2018-09-25T11:31:52.474Z,3.67
2018-09-25T11:34:26.268Z,1.73
2018-09-25T11:37:00.132Z,2.00
2018-09-25T11:39:33.842Z,2.73
2018-09-25T11:42:07.669Z,2.13
2018-09-25T11:44:41.446Z,1.97
2018-09-25T11:47:15.336Z,1.90
2018-09-25T11:49:49.079Z,1.50
2018-09-25T11:52:22.853Z,2.33
2018-09-25T11:54:56.374Z,1.73
2018-09-25T11:57:36.800Z,1.30
2018-09-25T12:00:10.711Z,1.63
2018-09-25T12:02:44.449Z,1.30
2018-09-25T12:05:18.179Z,1.37
2018-09-25T12:07:52.025Z,1.70
2018-09-25T12:10:25.901Z,1.57
2018-09-25T12:12:59.964Z,1.40
2018-09-25T12:15:33.655Z,1.40
2018-09-25T12:18:07.553Z,1.23
2018-09-25T12:20:41.219Z,1.90
2018-09-25T12:23:15.065Z,1.33
2018-09-25T12:25:48.765Z,1.90
2018-09-25T12:28:22.520Z,1.80
2018-09-25T12:30:56.180Z,1.60
2018-09-25T12:33:30.275Z,1.80
2018-09-25T12:36:03.962Z,1.43
2018-09-25T12:38:38.062Z,1.67
2018-09-25T12:41:12.028Z,1.73
2018-09-25T12:43:45.959Z,1.20
2018-09-25T12:46:19.633Z,1.00
2018-09-25T12:48:53.528Z,1.20
2018-09-25T12:51:27.443Z,1.00
2018-09-25T12:54:01.293Z,1.87
2018-09-25T12:56:35.142Z,1.33
2018-09-25T12:59:08.862Z,1.27
2018-09-25T13:01:42.766Z,1.30
2018-09-25T13:04:16.796Z,1.30
2018-09-25T13:06:51.017Z,1.13
2018-09-25T13:09:26.292Z,1.53
2018-09-25T13:12:01.021Z,1.13
2018-09-25T13:14:36.250Z,1.17
2018-09-25T13:17:10.840Z,1.07
2018-09-25T13:19:45.085Z,1.60
2018-09-25T13:22:18.776Z,1.70
2018-09-25T13:24:52.370Z,3.47
2018-09-25T13:27:26.093Z,3.50
2018-09-25T13:29:59.920Z,0.77
2018-09-25T13:32:33.599Z,1.70
2018-09-25T13:35:07.261Z,1.13
2018-09-25T13:37:41.057Z,1.50
2018-09-25T13:40:14.880Z,1.30
2018-09-25T13:42:48.530Z,1.50
2018-09-25T13:45:22.590Z,0.93
2018-09-25T13:47:56.381Z,1.30
2018-09-25T13:50:30.245Z,1.43
2018-09-25T13:53:04.010Z,1.30
2018-09-25T13:55:37.894Z,1.83
2018-09-25T13:58:11.506Z,1.17
2018-09-25T14:00:45.518Z,1.37
2018-09-25T14:03:19.395Z,1.17
2018-09-25T14:05:53.017Z,1.10
2018-09-25T14:08:26.636Z,1.30
2018-09-25T14:11:00.745Z,0.83
2018-09-25T14:13:34.662Z,3.57
2018-09-25T14:16:08.312Z,1.90
2018-09-25T14:18:42.159Z,1.03
2018-09-25T14:21:16.056Z,0.70
2018-09-25T14:23:49.840Z,1.13
2018-09-25T14:26:23.632Z,1.17
2018-09-25T14:28:57.500Z,1.40
2018-09-25T14:31:31.384Z,2.90
2018-09-25T14:34:05.366Z,7.67
2018-09-25T14:36:39.238Z,5.33
2018-09-25T14:46:25.211Z,1.90
2018-09-25T14:48:58.928Z,1.00
2018-09-25T14:51:32.560Z,0.90
2018-09-25T14:54:06.745Z,0.90
2018-09-25T14:56:40.575Z,1.30
2018-09-25T14:59:14.538Z,1.10
2018-09-25T15:01:48.243Z,0.70
2018-09-25T15:04:21.868Z,0.77
2018-09-25T15:06:56.135Z,0.70
2018-09-25T15:09:29.897Z,0.83
2018-09-25T15:12:03.848Z,1.30
2018-09-25T15:14:37.723Z,1.40
2018-09-25T15:17:12.055Z,1.50
2018-09-25T15:19:46.018Z,1.30
2018-09-25T15:22:20.127Z,1.13
2018-09-25T15:24:53.934Z,1.07
2018-09-25T15:27:27.963Z,0.80
2018-09-25T15:30:01.738Z,1.10
2018-09-25T15:32:35.571Z,2.40
2018-09-25T15:35:09.309Z,1.97
2018-09-25T15:37:43.229Z,2.27
2018-09-25T15:40:17.138Z,1.10
2018-09-25T15:42:50.898Z,1.33
2018-09-25T15:45:24.550Z,1.30
2018-09-25T15:47:58.754Z,1.10
2018-09-25T15:50:32.521Z,1.03
2018-09-25T15:53:06.328Z,1.10
2018-09-25T15:55:40.105Z,1.10
2018-09-25T15:58:15.006Z,1.50
2018-09-25T16:00:48.777Z,1.10
2018-09-25T16:03:22.474Z,1.37
2018-09-25T16:05:56.219Z,2.00
2018-09-25T16:08:30.052Z,1.80
2018-09-25T16:11:04.014Z,1.73
2018-09-25T16:13:37.796Z,1.60
2018-09-25T16:16:12.078Z,1.90
2018-09-25T16:18:45.775Z,1.40
2018-09-25T16:21:19.734Z,1.60
2018-09-25T16:23:53.827Z,1.87
2018-09-25T16:26:27.699Z,2.50
2018-09-25T16:29:01.338Z,1.43
2018-09-25T16:31:35.320Z,2.00
2018-09-25T16:34:09.543Z,4.17
2018-09-25T16:36:43.239Z,4.80
2018-09-25T16:39:17.298Z,3.67
2018-09-25T16:41:51.165Z,3.30
2018-09-25T16:44:25.414Z,3.07
2018-09-25T16:46:59.326Z,2.97
2018-09-25T16:49:33.270Z,6.10
2018-09-25T16:52:07.203Z,7.33
2018-09-25T16:57:23.633Z,13.83
2018-09-25T16:59:57.474Z,6.40
2018-09-25T17:02:31.627Z,4.10
2018-09-25T17:05:05.328Z,14.93
2018-09-25T17:07:39.341Z,10.33
2018-09-25T17:10:13.203Z,6.77
2018-09-25T17:12:47.251Z,5.20
2018-09-25T17:15:21.336Z,4.00
2018-09-25T17:17:55.302Z,1.97
2018-09-25T17:20:29.120Z,1.90
2018-09-25T17:23:02.917Z,2.40
2018-09-25T17:25:37.192Z,4.57
2018-09-25T17:28:11.010Z,4.63
2018-09-25T17:30:44.844Z,6.43
2018-09-25T17:33:18.707Z,4.80
2018-09-25T17:35:53.004Z,13.03
2018-09-25T17:38:27.038Z,3.30
2018-09-25T17:41:01.103Z,1.80
2018-09-25T17:43:35.175Z,2.40
2018-09-25T17:46:09.019Z,2.20
2018-09-25T17:48:42.803Z,2.00
2018-09-25T17:51:16.806Z,2.50
2018-09-25T17:53:50.970Z,2.83
2018-09-25T17:56:25.321Z,7.80
2018-09-25T17:58:59.110Z,8.40
2018-09-25T18:01:33.465Z,6.00
2018-09-25T18:04:08.172Z,5.47
2018-09-25T18:06:42.689Z,7.53
2018-09-25T18:09:16.948Z,6.63
2018-09-25T18:11:51.422Z,3.47
2018-09-25T18:14:26.058Z,5.13
2018-09-25T18:17:00.166Z,7.77
2018-09-25T18:19:34.489Z,7.50
2018-09-25T18:22:08.257Z,3.67
2018-09-25T18:24:43.137Z,3.90
2018-09-25T18:27:16.940Z,6.43
2018-09-25T18:29:51.305Z,21.50
2018-09-25T18:32:25.326Z,13.77
2018-09-25T18:34:59.979Z,9.70
2018-09-25T18:37:34.122Z,8.37
2018-09-25T18:40:08.325Z,4.10
2018-09-25T18:42:42.470Z,3.47
2018-09-25T18:45:17.294Z,2.90
2018-09-25T18:47:51.669Z,2.93
2018-09-25T18:50:26.219Z,3.00
2018-09-25T18:53:00.832Z,2.50
2018-09-25T18:55:34.951Z,2.30
2018-09-25T18:58:09.565Z,2.40
2018-09-25T19:00:43.950Z,2.33
2018-09-25T19:03:18.096Z,4.17
2018-09-25T19:05:52.591Z,4.97
2018-09-25T19:08:32.577Z,2.83
2018-09-25T19:11:06.936Z,2.40
2018-09-25T19:13:41.194Z,3.20
2018-09-25T19:16:15.963Z,2.60
2018-09-25T19:18:50.329Z,2.13
2018-09-25T19:21:25.237Z,2.93
2018-09-25T19:23:59.349Z,2.67
2018-09-25T19:26:34.181Z,2.47
2018-09-25T19:29:08.167Z,2.20
2018-09-25T19:31:42.687Z,2.53
2018-09-25T19:34:17.228Z,2.23
2018-09-25T19:36:51.608Z,2.43
2018-09-25T19:39:25.663Z,2.80
2018-09-25T19:41:59.710Z,3.40
2018-09-25T19:44:33.701Z,3.40
2018-09-25T19:47:07.588Z,4.10
2018-09-25T19:49:42.217Z,3.27
2018-09-25T19:52:16.522Z,3.80
2018-09-25T19:54:50.829Z,4.40
2018-09-25T19:57:25.321Z,4.60
2018-09-25T19:59:59.456Z,4.37
2018-09-25T20:02:33.510Z,3.67
2018-09-25T20:05:07.832Z,3.87
2018-09-25T20:07:42.786Z,3.10
2018-09-25T20:10:17.645Z,3.37
2018-09-25T20:12:51.859Z,3.70
2018-09-25T20:15:25.894Z,3.53
2018-09-25T20:18:00.512Z,3.57
2018-09-25T20:20:34.686Z,3.50
2018-09-25T20:23:08.991Z,3.63
2018-09-25T20:25:43.383Z,2.93
2018-09-25T20:28:18.447Z,3.53
2018-09-25T20:30:53.355Z,2.90
2018-09-25T20:33:27.627Z,3.03
2018-09-25T20:36:01.845Z,3.27
2018-09-25T20:38:36.501Z,3.13
2018-09-25T20:41:10.874Z,2.57
2018-09-25T20:43:45.303Z,3.07
2018-09-25T20:46:19.576Z,2.83
2018-09-25T20:48:54.007Z,2.50
2018-09-25T20:51:28.285Z,2.97
2018-09-25T20:54:02.842Z,2.20
2018-09-25T20:56:36.659Z,2.30
2018-09-25T20:59:10.829Z,2.20
2018-09-25T21:01:45.188Z,2.23
2018-09-25T21:04:19.598Z,1.93
2018-09-25T21:06:53.998Z,2.00
2018-09-25T21:09:28.061Z,2.00
2018-09-25T21:12:02.015Z,1.93
2018-09-25T21:14:36.292Z,2.03
2018-09-25T21:17:10.724Z,1.80
2018-09-25T21:19:44.993Z,2.37
2018-09-25T21:22:19.109Z,2.13
2018-09-25T21:24:52.935Z,1.90
2018-09-25T21:27:27.097Z,2.10
2018-09-25T21:30:00.972Z,2.30
2018-09-25T21:32:34.840Z,1.77
2018-09-25T21:35:08.847Z,1.90
2018-09-25T21:37:42.640Z,2.03
2018-09-25T21:40:16.529Z,2.20
2018-09-25T21:42:49.960Z,2.00
2018-09-25T21:45:23.936Z,1.90
2018-09-25T21:47:57.777Z,1.97
2018-09-25T21:50:31.545Z,1.90
2018-09-25T21:53:05.194Z,1.70
2018-09-25T21:55:39.223Z,1.80
2018-09-25T21:58:13.021Z,1.73
2018-09-25T22:00:46.862Z,1.70
2018-09-25T22:03:20.664Z,1.60
2018-09-25T22:05:54.578Z,1.70
2018-09-25T22:08:28.351Z,1.57
2018-09-25T22:11:02.301Z,1.50
2018-09-25T22:13:36.052Z,1.73
2018-09-25T22:16:09.940Z,1.90
2018-09-25T22:18:43.644Z,1.80
2018-09-25T22:21:17.511Z,1.70
2018-09-25T22:23:51.354Z,1.83
2018-09-25T22:26:25.027Z,1.53
2018-09-25T22:28:58.859Z,1.70
2018-09-25T22:31:32.794Z,1.50
2018-09-25T22:34:06.446Z,1.87
2018-09-25T22:36:40.561Z,1.60
2018-09-25T22:39:15.172Z,1.83
2018-09-25T22:41:49.172Z,1.80
2018-09-25T22:44:23.046Z,1.50
2018-09-25T22:46:56.930Z,1.20
2018-09-25T22:49:30.618Z,1.60
2018-09-25T22:52:04.519Z,1.50
2018-09-25T22:54:38.810Z,1.50
2018-09-25T22:57:12.479Z,1.47
2018-09-25T22:59:46.320Z,1.90
2018-09-25T23:02:20.313Z,1.07
2018-09-25T23:04:53.917Z,1.40
2018-09-25T23:07:27.823Z,2.17
2018-09-25T23:10:01.380Z,1.70
2018-09-25T23:12:34.932Z,1.57
2018-09-25T23:15:08.774Z,1.30
2018-09-25T23:17:42.597Z,1.60
2018-09-25T23:20:16.208Z,1.37
2018-09-25T23:22:50.071Z,1.50
2018-09-25T23:25:23.789Z,1.60
2018-09-25T23:27:57.534Z,1.50
2018-09-25T23:30:31.275Z,1.60
2018-09-25T23:33:04.946Z,1.53
2018-09-25T23:35:38.656Z,1.50
2018-09-25T23:38:12.289Z,1.40
2018-09-25T23:40:45.957Z,1.37
2018-09-25T23:43:18.881Z,1.57
2018-09-25T23:46:55.089Z,1.60
2018-09-25T23:49:31.049Z,1.27
2018-09-25T23:52:09.991Z,1.20
2018-09-25T23:54:47.700Z,1.43
2018-09-25T23:57:21.272Z,1.23
